Time;durP1;ratioP1;P1;durP2;ratioP2;P2;SDS_P1;SDS_P2;PMS_P1;PMS_P2;Temp;Humidity;BMP_temperature;BMP_pressure;BME280_temperature;BME280_humidity;BME280_pressure;Samples;Min_cycle;Max_cycle;Signal;HPM_P1;HPM_P2
2023/09/21 00:00:29;;;;;;;8.32;2.80;;;13.80;99.90;;;;;;5111235;28;20495;-69
2023/09/21 00:02:57;;;;;;;5.85;3.08;;;13.80;99.90;;;;;;5109180;28;20039;-69
2023/09/21 00:05:27;;;;;;;7.25;3.17;;;13.80;99.90;;;;;;5111711;28;20028;-69
2023/09/21 00:07:57;;;;;;;6.07;2.90;;;13.70;99.90;;;;;;5109214;28;20114;-68
2023/09/21 00:10:23;;;;;;;7.03;2.88;;;13.70;99.90;;;;;;5091927;28;20034;-68
2023/09/21 00:12:49;;;;;;;4.40;3.00;;;13.70;99.90;;;;;;5112391;28;20125;-68
2023/09/21 00:15:18;;;;;;;6.68;3.13;;;13.80;99.90;;;;;;5111089;28;20423;-69
2023/09/21 00:17:49;;;;;;;6.03;3.03;;;13.70;99.90;;;;;;5110008;28;20023;-68
2023/09/21 00:20:23;;;;;;;6.18;3.15;;;13.80;99.90;;;;;;5104878;28;20043;-68
2023/09/21 00:22:51;;;;;;;5.30;2.92;;;13.80;99.90;;;;;;5108914;28;20118;-68
2023/09/21 00:25:17;;;;;;;6.65;3.17;;;13.80;99.90;;;;;;5109102;28;20096;-70
2023/09/21 00:27:44;;;;;;;5.20;2.83;;;13.80;99.90;;;;;;5110394;28;20102;-70
2023/09/21 00:30:10;;;;;;;5.15;2.90;;;13.70;99.90;;;;;;5110433;28;20027;-70
2023/09/21 00:32:40;;;;;;;7.03;3.13;;;13.70;99.90;;;;;;5108800;28;20400;-69
2023/09/21 00:35:09;;;;;;;4.53;2.63;;;13.70;99.90;;;;;;5090478;28;20036;-70
2023/09/21 00:37:37;;;;;;;9.30;3.60;;;13.70;99.90;;;;;;5110923;28;20107;-70
2023/09/21 00:40:15;;;;;;;6.03;3.10;;;13.60;99.90;;;;;;5108354;28;20084;-70
2023/09/21 00:42:42;;;;;;;8.25;3.28;;;13.50;99.90;;;;;;5107119;28;20092;-69
2023/09/21 00:45:08;;;;;;;5.57;3.15;;;13.30;99.90;;;;;;5109654;28;20035;-70
2023/09/21 00:47:39;;;;;;;4.03;2.90;;;13.30;99.90;;;;;;5111314;28;20047;-69
2023/09/21 00:50:08;;;;;;;5.13;2.80;;;13.30;99.90;;;;;;5106354;28;21738;-70
2023/09/21 00:52:33;;;;;;;6.43;3.20;;;13.30;99.90;;;;;;5109773;28;20036;-70
2023/09/21 00:55:00;;;;;;;5.18;3.30;;;13.30;99.90;;;;;;5109531;28;20039;-70
2023/09/21 00:57:26;;;;;;;5.90;2.97;;;13.20;99.90;;;;;;5104105;28;20098;-69
2023/09/21 00:59:52;;;;;;;7.72;2.50;;;13.20;99.90;;;;;;5105509;28;20106;-69
2023/09/21 01:02:19;;;;;;;5.65;3.00;;;13.20;99.90;;;;;;5106465;28;20106;-70
2023/09/21 01:04:45;;;;;;;5.35;2.70;;;13.30;99.90;;;;;;5105150;28;20038;-69
2023/09/21 01:07:17;;;;;;;4.97;2.60;;;13.20;99.90;;;;;;5106660;28;20035;-70
2023/09/21 01:09:45;;;;;;;4.40;2.50;;;13.20;99.90;;;;;;5109394;28;20031;-70
2023/09/21 01:12:13;;;;;;;6.30;3.40;;;13.20;99.90;;;;;;5100689;28;20114;-70
2023/09/21 01:14:39;;;;;;;5.45;2.42;;;13.20;99.90;;;;;;5109458;28;20031;-70
2023/09/21 01:17:04;;;;;;;5.28;2.65;;;13.10;99.90;;;;;;5107348;28;20112;-70
2023/09/21 01:19:30;;;;;;;5.05;2.63;;;13.10;99.90;;;;;;5105462;28;20055;-70
2023/09/21 01:21:59;;;;;;;4.45;2.60;;;13.10;99.90;;;;;;5108497;28;20696;-69
2023/09/21 01:24:27;;;;;;;5.68;2.92;;;13.00;99.90;;;;;;5104754;28;20563;-70
2023/09/21 01:26:53;;;;;;;7.35;3.03;;;12.90;99.90;;;;;;5107335;28;20027;-70
2023/09/21 01:29:19;;;;;;;5.55;2.80;;;12.90;99.90;;;;;;5105130;28;20519;-69
2023/09/21 01:31:45;;;;;;;7.78;3.30;;;12.90;99.90;;;;;;5106190;28;20112;-70
2023/09/21 01:34:11;;;;;;;5.38;3.08;;;13.00;99.90;;;;;;5105769;28;20189;-69
2023/09/21 01:36:37;;;;;;;4.72;2.90;;;13.00;99.90;;;;;;5108797;28;20098;-69
2023/09/21 01:39:08;;;;;;;5.32;2.75;;;13.00;99.90;;;;;;5108911;28;20030;-69
2023/09/21 01:41:35;;;;;;;4.75;2.75;;;12.90;99.90;;;;;;5100606;28;20100;-68
2023/09/21 01:44:01;;;;;;;5.75;2.60;;;12.90;99.90;;;;;;5108951;28;20023;-70
2023/09/21 01:46:27;;;;;;;7.50;3.03;;;12.80;99.90;;;;;;5101994;28;20042;-70
2023/09/21 01:48:53;;;;;;;6.55;2.80;;;12.80;99.90;;;;;;5085992;28;20055;-70
2023/09/21 01:51:19;;;;;;;6.88;3.17;;;12.80;99.90;;;;;;5108097;28;20031;-70
2023/09/21 01:53:45;;;;;;;4.25;2.70;;;12.80;99.90;;;;;;5106860;28;20050;-68
2023/09/21 01:56:11;;;;;;;5.57;2.67;;;12.80;99.90;;;;;;5103312;28;20397;-68
2023/09/21 01:58:37;;;;;;;3.90;2.40;;;12.80;99.90;;;;;;5108366;28;20020;-70
2023/09/21 02:01:04;;;;;;;7.20;2.83;;;12.90;99.90;;;;;;5103691;28;20520;-70
2023/09/21 02:03:31;;;;;;;9.18;3.33;;;12.90;99.90;;;;;;5107638;28;20039;-68
2023/09/21 02:05:59;;;;;;;6.25;2.75;;;12.90;99.90;;;;;;5108249;28;20427;-69
2023/09/21 02:08:25;;;;;;;7.80;2.72;;;12.90;99.90;;;;;;5101393;28;20460;-69
2023/09/21 02:10:52;;;;;;;4.30;2.55;;;12.80;99.90;;;;;;5102837;28;20038;-69
2023/09/21 02:13:18;;;;;;;6.60;3.20;;;12.80;99.90;;;;;;5109002;28;20034;-69
2023/09/21 02:15:44;;;;;;;5.22;3.22;;;12.90;99.90;;;;;;5106955;28;20134;-69
2023/09/21 02:18:10;;;;;;;6.15;2.83;;;12.90;99.90;;;;;;5096837;28;20090;-71
2023/09/21 02:20:42;;;;;;;6.03;2.95;;;12.70;99.90;;;;;;5096507;28;20028;-70
2023/09/21 02:23:08;;;;;;;5.75;3.00;;;12.40;99.90;;;;;;5104804;28;20459;-70
2023/09/21 02:25:35;;;;;;;5.55;2.80;;;12.20;99.90;;;;;;5109399;28;20035;-70
2023/09/21 02:28:08;;;;;;;5.43;3.20;;;12.20;99.90;;;;;;5109396;28;20027;-70
2023/09/21 02:30:34;;;;;;;4.18;2.90;;;12.30;99.90;;;;;;5107142;28;20035;-70
2023/09/21 02:33:00;;;;;;;7.68;3.10;;;12.20;99.90;;;;;;5106696;28;20039;-70
2023/09/21 02:35:30;;;;;;;5.55;3.22;;;12.30;99.90;;;;;;5106838;28;20637;-70
2023/09/21 02:37:56;;;;;;;4.78;2.95;;;12.30;99.90;;;;;;5108509;27;20463;-70
2023/09/21 02:40:23;;;;;;;7.05;2.88;;;12.40;99.90;;;;;;5097382;28;20541;-70
2023/09/21 02:42:50;;;;;;;5.22;2.58;;;12.50;99.90;;;;;;5102525;28;20027;-71
2023/09/21 02:45:18;;;;;;;5.18;2.67;;;12.50;99.90;;;;;;5103340;28;20190;-70
2023/09/21 02:47:46;;;;;;;7.30;3.40;;;12.60;99.90;;;;;;5080676;28;20044;-70
2023/09/21 02:50:14;;;;;;;4.18;2.78;;;12.70;99.90;;;;;;5089633;28;20119;-68
2023/09/21 02:52:45;;;;;;;4.75;2.75;;;12.80;99.90;;;;;;5080619;28;20028;-68
2023/09/21 02:55:20;;;;;;;4.72;3.15;;;12.70;99.90;;;;;;5101500;28;20090;-71
2023/09/21 02:57:49;;;;;;;5.47;3.03;;;12.70;99.90;;;;;;5080021;28;20020;-71
2023/09/21 03:00:22;;;;;;;5.15;2.90;;;12.70;99.90;;;;;;5077805;28;20060;-70
2023/09/21 03:02:49;;;;;;;5.60;3.00;;;12.70;99.90;;;;;;5088312;28;20059;-70
2023/09/21 03:05:16;;;;;;;7.03;3.35;;;12.70;99.90;;;;;;5087374;28;20241;-71
2023/09/21 03:07:43;;;;;;;6.45;3.05;;;12.70;99.90;;;;;;5086543;28;20052;-71
2023/09/21 03:10:10;;;;;;;6.70;2.80;;;12.70;99.90;;;;;;5087867;28;20544;-71
2023/09/21 03:12:37;;;;;;;4.68;2.95;;;12.70;99.90;;;;;;5079186;28;20078;-70
2023/09/21 03:15:07;;;;;;;7.50;3.50;;;12.60;99.90;;;;;;5084093;28;20035;-70
2023/09/21 03:17:34;;;;;;;7.75;3.30;;;12.50;99.90;;;;;;5087565;28;20032;-70
2023/09/21 03:20:11;;;;;;;5.20;2.75;;;12.50;99.90;;;;;;5078926;28;20123;-71
2023/09/21 03:22:38;;;;;;;6.68;2.70;;;12.50;99.90;;;;;;5087540;28;20036;-71
2023/09/21 03:25:11;;;;;;;4.10;2.50;;;12.50;99.90;;;;;;5088367;28;20036;-71
2023/09/21 03:27:38;;;;;;;8.02;2.95;;;12.60;99.90;;;;;;5088159;28;20039;-71
2023/09/21 03:30:05;;;;;;;8.57;2.75;;;12.60;99.90;;;;;;5083647;28;20551;-71
2023/09/21 03:32:31;;;;;;;4.65;2.60;;;12.60;99.90;;;;;;5081500;28;20043;-71
2023/09/21 03:34:57;;;;;;;5.13;2.88;;;12.60;99.90;;;;;;5085668;28;20459;-71
2023/09/21 03:37:24;;;;;;;5.82;2.70;;;12.60;99.90;;;;;;5078255;28;20024;-71
2023/09/21 03:39:49;;;;;;;4.45;2.88;;;12.60;99.90;;;;;;5084299;28;20564;-71
2023/09/21 03:42:15;;;;;;;5.10;3.08;;;12.60;99.90;;;;;;5085922;28;20028;-72
2023/09/21 03:44:42;;;;;;;7.57;2.88;;;12.70;99.90;;;;;;5085649;28;20031;-71
2023/09/21 03:47:11;;;;;;;7.43;2.72;;;12.70;99.90;;;;;;5086813;28;20060;-71
2023/09/21 03:49:37;;;;;;;5.07;2.50;;;12.80;99.90;;;;;;5058770;28;20478;-71
2023/09/21 03:52:04;;;;;;;5.13;2.90;;;12.80;99.90;;;;;;5085238;28;20051;-71
2023/09/21 03:54:29;;;;;;;6.07;2.85;;;12.80;99.90;;;;;;5081872;28;20028;-70
2023/09/21 03:56:55;;;;;;;5.25;3.00;;;12.70;99.90;;;;;;5088053;28;20111;-71
2023/09/21 03:59:21;;;;;;;9.45;2.88;;;12.70;99.90;;;;;;5083730;28;20031;-71
2023/09/21 04:01:46;;;;;;;5.22;2.85;;;12.70;99.90;;;;;;5088128;28;20028;-71
2023/09/21 04:04:17;;;;;;;4.22;2.70;;;12.70;99.90;;;;;;5087424;28;20392;-71
2023/09/21 04:06:44;;;;;;;4.05;2.60;;;12.70;99.90;;;;;;5088081;28;20115;-71
2023/09/21 04:09:10;;;;;;;6.88;2.47;;;12.70;99.90;;;;;;5087723;28;20518;-71
2023/09/21 04:11:35;;;;;;;6.00;2.50;;;12.70;99.90;;;;;;5086508;28;20020;-71
2023/09/21 04:14:02;;;;;;;3.95;2.65;;;12.70;99.90;;;;;;5087152;28;20377;-71
2023/09/21 04:16:28;;;;;;;3.80;2.40;;;12.70;99.90;;;;;;5089969;28;20109;-71
2023/09/21 04:18:55;;;;;;;4.95;2.92;;;12.60;99.90;;;;;;5090572;28;20044;-71
2023/09/21 04:21:23;;;;;;;9.02;3.00;;;12.60;99.90;;;;;;5086047;28;20465;-71
2023/09/21 04:23:49;;;;;;;5.28;2.70;;;12.60;99.90;;;;;;5090140;28;20086;-71
2023/09/21 04:26:15;;;;;;;4.05;2.50;;;12.70;99.90;;;;;;5089394;28;20032;-71
2023/09/21 04:28:41;;;;;;;4.00;2.88;;;12.70;99.90;;;;;;5091424;28;20380;-71
2023/09/21 04:31:09;;;;;;;4.10;2.83;;;12.70;99.90;;;;;;5090222;28;20040;-71
2023/09/21 04:33:35;;;;;;;6.75;3.22;;;12.70;99.90;;;;;;5089370;28;20138;-71
2023/09/21 04:36:01;;;;;;;7.47;3.05;;;12.70;99.90;;;;;;5089805;28;20365;-71
2023/09/21 04:38:27;;;;;;;6.35;3.13;;;12.60;99.90;;;;;;5089259;28;20035;-71
2023/09/21 04:40:52;;;;;;;5.53;3.08;;;12.60;99.90;;;;;;5090625;28;20035;-71
2023/09/21 04:43:18;;;;;;;5.90;2.97;;;12.70;99.90;;;;;;5090332;28;20028;-71
2023/09/21 04:45:48;;;;;;;4.35;2.50;;;12.70;99.90;;;;;;5090784;28;20479;-71
2023/09/21 04:48:14;;;;;;;6.45;2.90;;;12.80;99.90;;;;;;5087476;28;20052;-71
2023/09/21 04:50:41;;;;;;;4.20;2.50;;;12.70;99.90;;;;;;5090617;28;20073;-71
2023/09/21 04:53:06;;;;;;;4.97;2.92;;;12.80;99.90;;;;;;5090761;28;20035;-71
2023/09/21 04:55:32;;;;;;;5.07;2.97;;;12.80;99.90;;;;;;5090048;28;20024;-71
2023/09/21 04:57:58;;;;;;;5.07;2.53;;;12.90;99.90;;;;;;5089498;28;20457;-71
2023/09/21 05:00:23;;;;;;;6.70;2.78;;;12.90;99.90;;;;;;5089829;28;20031;-71
2023/09/21 05:02:49;;;;;;;15.38;3.38;;;12.90;99.90;;;;;;5090327;28;20036;-71
2023/09/21 05:05:17;;;;;;;4.75;2.83;;;12.90;99.90;;;;;;5090176;28;20039;-72
2023/09/21 05:07:42;;;;;;;7.20;2.90;;;13.00;99.90;;;;;;5087529;28;20032;-71
2023/09/21 05:10:11;;;;;;;4.35;3.05;;;12.90;99.90;;;;;;5090391;28;20380;-71
2023/09/21 05:12:37;;;;;;;5.53;3.25;;;12.90;99.90;;;;;;5089414;28;20036;-71
2023/09/21 05:15:06;;;;;;;6.40;3.42;;;12.80;99.90;;;;;;5090643;28;20593;-71
2023/09/21 05:17:32;;;;;;;6.18;2.83;;;12.80;99.90;;;;;;5088850;28;21041;-71
2023/09/21 05:19:58;;;;;;;5.40;3.15;;;12.90;99.90;;;;;;5088799;28;20036;-71
2023/09/21 05:22:23;;;;;;;5.10;3.08;;;13.00;99.90;;;;;;5088494;28;20028;-71
2023/09/21 05:24:49;;;;;;;6.97;3.00;;;13.00;99.90;;;;;;5089879;28;20737;-71
2023/09/21 05:27:15;;;;;;;5.60;2.90;;;13.10;99.90;;;;;;5088233;28;20113;-71
2023/09/21 05:29:40;;;;;;;6.50;3.00;;;13.10;99.90;;;;;;5089702;28;20086;-71
2023/09/21 05:32:06;;;;;;;6.72;3.00;;;13.00;99.90;;;;;;5089958;28;20032;-71
2023/09/21 05:34:32;;;;;;;5.80;2.92;;;13.00;99.90;;;;;;5088677;28;20125;-71
2023/09/21 05:36:58;;;;;;;5.10;3.10;;;13.10;99.90;;;;;;5089102;28;20024;-71
2023/09/21 05:39:24;;;;;;;6.53;2.97;;;13.10;99.90;;;;;;5088064;28;20065;-71
2023/09/21 05:41:51;;;;;;;6.78;3.17;;;13.00;99.90;;;;;;5088922;28;20398;-71
2023/09/21 05:44:21;;;;;;;5.25;2.85;;;12.90;99.90;;;;;;5089180;28;20028;-71
2023/09/21 05:46:49;;;;;;;7.78;3.08;;;12.90;99.90;;;;;;5089462;28;20702;-71
2023/09/21 05:49:22;;;;;;;7.75;3.00;;;12.90;99.90;;;;;;5089189;28;20156;-71
2023/09/21 05:51:48;;;;;;;5.30;2.92;;;13.00;99.90;;;;;;5089589;28;20051;-71
2023/09/21 05:54:16;;;;;;;8.32;3.17;;;13.10;99.90;;;;;;5089476;28;20107;-71
2023/09/21 05:56:43;;;;;;;6.95;2.90;;;13.10;99.90;;;;;;5088655;28;20024;-71
2023/09/21 05:59:09;;;;;;;4.63;2.75;;;13.00;99.90;;;;;;5088500;28;20032;-71
2023/09/21 06:01:34;;;;;;;5.25;2.70;;;13.00;99.90;;;;;;5088696;28;20090;-71
2023/09/21 06:04:00;;;;;;;11.23;2.95;;;12.90;99.90;;;;;;5089604;28;20055;-71
2023/09/21 06:06:28;;;;;;;6.88;2.75;;;12.90;99.90;;;;;;5088726;28;20024;-71
2023/09/21 06:08:56;;;;;;;6.03;2.70;;;12.90;99.90;;;;;;5088468;28;20032;-71
2023/09/21 06:11:22;;;;;;;6.32;2.78;;;12.90;99.90;;;;;;5087523;28;20028;-71
2023/09/21 06:13:48;;;;;;;11.63;2.72;;;13.00;99.90;;;;;;5089167;28;20068;-71
2023/09/21 06:16:14;;;;;;;4.47;3.15;;;13.20;99.90;;;;;;5089059;28;20101;-71
2023/09/21 06:18:41;;;;;;;4.68;2.88;;;13.40;99.90;;;;;;5087550;28;20032;-71
2023/09/21 06:21:06;;;;;;;4.40;3.05;;;13.50;99.90;;;;;;5089201;28;20031;-70
2023/09/21 06:23:32;;;;;;;6.10;2.70;;;13.70;99.90;;;;;;5088483;28;20028;-71
2023/09/21 06:25:59;;;;;;;5.25;2.67;;;13.80;99.90;;;;;;5087294;28;20066;-71
2023/09/21 06:28:24;;;;;;;4.60;2.80;;;13.90;99.90;;;;;;5086954;28;20039;-70
2023/09/21 06:30:51;;;;;;;6.68;3.22;;;14.10;99.90;;;;;;5089073;28;20020;-71
2023/09/21 06:33:18;;;;;;;5.30;3.00;;;14.20;99.90;;;;;;5087791;28;20584;-70
2023/09/21 06:35:44;;;;;;;6.32;3.50;;;14.20;99.90;;;;;;5088586;28;20475;-70
2023/09/21 06:38:09;;;;;;;4.90;3.08;;;14.10;99.90;;;;;;5069922;28;20024;-70
2023/09/21 06:40:38;;;;;;;9.88;2.90;;;14.00;99.90;;;;;;5087612;28;20091;-72
2023/09/21 06:43:07;;;;;;;6.03;3.50;;;14.00;99.90;;;;;;5087607;28;20544;-71
2023/09/21 06:45:34;;;;;;;7.97;3.00;;;14.10;99.90;;;;;;5088254;28;20024;-70
2023/09/21 06:48:01;;;;;;;5.40;3.00;;;14.20;99.90;;;;;;5088540;28;20051;-71
2023/09/21 06:50:27;;;;;;;4.97;2.83;;;14.20;99.90;;;;;;5087847;28;20039;-71
2023/09/21 06:52:53;;;;;;;6.18;3.25;;;14.20;99.90;;;;;;5087677;28;20043;-71
2023/09/21 06:55:19;;;;;;;7.00;3.45;;;14.20;99.90;;;;;;5086574;28;20678;-72
2023/09/21 06:57:45;;;;;;;6.75;3.13;;;14.20;99.90;;;;;;5086560;28;20484;-71
2023/09/21 07:00:11;;;;;;;8.38;3.22;;;14.30;99.90;;;;;;5087837;28;20362;-71
2023/09/21 07:02:36;;;;;;;4.65;3.10;;;14.40;99.90;;;;;;5084808;28;20032;-71
2023/09/21 07:05:03;;;;;;;7.22;3.22;;;14.50;99.90;;;;;;5088583;28;20037;-71
2023/09/21 07:07:29;;;;;;;6.65;3.28;;;14.60;99.90;;;;;;5086702;28;20039;-71
2023/09/21 07:09:55;;;;;;;4.55;3.10;;;14.80;99.90;;;;;;5087889;28;20024;-71
2023/09/21 07:12:24;;;;;;;8.18;3.33;;;15.00;99.90;;;;;;5087985;28;20040;-71
2023/09/21 07:14:50;;;;;;;7.88;3.45;;;15.10;99.90;;;;;;5086825;28;20142;-70
2023/09/21 07:17:16;;;;;;;6.53;2.80;;;15.20;99.90;;;;;;5087447;28;20071;-71
2023/09/21 07:19:42;;;;;;;6.53;3.28;;;15.30;99.90;;;;;;5087740;28;20061;-71
2023/09/21 07:22:08;;;;;;;6.10;2.70;;;15.50;99.90;;;;;;5088241;28;20024;-72
2023/09/21 07:24:34;;;;;;;5.55;3.20;;;15.60;99.90;;;;;;5087879;28;20103;-71
2023/09/21 07:27:00;;;;;;;6.88;3.22;;;15.60;99.90;;;;;;5087336;28;20033;-71
2023/09/21 07:29:26;;;;;;;6.55;3.08;;;15.70;99.90;;;;;;5087017;28;20068;-70
2023/09/21 07:31:52;;;;;;;8.90;3.00;;;15.80;99.90;;;;;;5087888;28;20047;-70
2023/09/21 07:34:18;;;;;;;5.25;2.92;;;15.80;99.90;;;;;;5088266;28;20028;-70
2023/09/21 07:36:46;;;;;;;6.28;3.25;;;15.90;99.90;;;;;;5087502;28;20885;-71
2023/09/21 07:39:12;;;;;;;9.95;3.50;;;16.00;99.90;;;;;;5087499;28;20110;-71
2023/09/21 07:41:40;;;;;;;6.30;3.13;;;16.20;99.90;;;;;;5086239;28;20036;-70
2023/09/21 07:44:08;;;;;;;7.57;3.20;;;16.40;99.90;;;;;;5086589;28;20054;-71
2023/09/21 07:46:36;;;;;;;6.68;3.58;;;16.50;99.90;;;;;;5087320;28;20040;-71
2023/09/21 07:49:02;;;;;;;6.20;3.38;;;16.60;99.90;;;;;;5088442;28;20524;-71
2023/09/21 07:51:28;;;;;;;5.75;3.70;;;16.80;99.90;;;;;;5088049;28;20063;-71
2023/09/21 07:53:54;;;;;;;8.57;3.67;;;17.10;99.90;;;;;;5087669;28;20071;-71
2023/09/21 07:56:19;;;;;;;7.70;3.67;;;17.40;99.90;;;;;;5085339;28;20071;-70
2023/09/21 07:58:45;;;;;;;7.50;3.85;;;17.70;99.90;;;;;;5089983;28;20039;-71
2023/09/21 08:01:11;;;;;;;7.13;3.90;;;18.00;99.90;;;;;;5091214;28;20067;-71
2023/09/21 08:03:37;;;;;;;7.43;3.40;;;18.30;99.90;;;;;;5090992;28;20038;-71
2023/09/21 08:06:03;;;;;;;7.90;2.85;;;18.60;99.90;;;;;;5091780;28;20027;-71
2023/09/21 08:08:28;;;;;;;7.28;3.70;;;18.70;99.90;;;;;;5090283;28;20459;-71
2023/09/21 08:10:54;;;;;;;5.55;2.88;;;19.00;99.90;;;;;;5072487;28;20391;-72
2023/09/21 08:13:26;;;;;;;6.80;3.63;;;19.20;99.90;;;;;;5091393;28;20507;-71
2023/09/21 08:15:54;;;;;;;7.47;3.88;;;19.40;99.90;;;;;;5091334;28;20028;-72
2023/09/21 08:18:20;;;;;;;6.75;3.20;;;19.60;99.90;;;;;;5091595;28;20028;-70
2023/09/21 08:20:45;;;;;;;9.75;3.63;;;19.80;99.90;;;;;;5090606;28;20275;-71
2023/09/21 08:23:11;;;;;;;8.15;3.42;;;19.90;99.90;;;;;;5089451;28;20031;-71
2023/09/21 08:25:38;;;;;;;6.03;2.75;;;20.00;99.90;;;;;;5090566;28;20025;-71
2023/09/21 08:28:04;;;;;;;10.38;3.15;;;20.20;99.90;;;;;;5089562;28;20043;-71
2023/09/21 08:30:30;;;;;;;5.30;2.67;;;20.30;99.90;;;;;;5090448;28;20540;-71
2023/09/21 08:32:57;;;;;;;5.80;2.90;;;20.50;99.90;;;;;;5090167;28;20070;-70
2023/09/21 08:35:22;;;;;;;6.88;3.20;;;20.50;99.90;;;;;;5091121;28;20040;-71
2023/09/21 08:37:50;;;;;;;8.30;2.95;;;20.60;99.90;;;;;;5089478;28;20434;-71
2023/09/21 08:40:16;;;;;;;5.78;2.72;;;20.70;99.90;;;;;;5090068;28;20064;-71
2023/09/21 08:42:44;;;;;;;6.10;2.53;;;20.80;99.90;;;;;;5088987;28;20028;-71
2023/09/21 08:45:11;;;;;;;6.97;2.97;;;20.90;99.90;;;;;;5090988;28;20032;-71
2023/09/21 08:47:49;;;;;;;4.57;2.63;;;21.10;99.90;;;;;;5089606;28;20059;-71
2023/09/21 08:50:15;;;;;;;6.15;2.90;;;21.30;99.90;;;;;;5090522;28;20229;-72
2023/09/21 08:52:45;;;;;;;10.30;5.05;;;21.50;99.90;;;;;;5088928;28;20040;-72
2023/09/21 08:55:16;;;;;;;4.95;2.83;;;21.60;99.90;;;;;;5082528;28;20032;-72
2023/09/21 08:57:42;;;;;;;2.92;1.88;;;21.80;99.90;;;;;;5088524;28;20036;-71
2023/09/21 09:00:11;;;;;;;4.22;2.05;;;21.90;99.90;;;;;;5090684;28;20024;-70
2023/09/21 09:02:37;;;;;;;4.68;2.17;;;22.00;99.90;;;;;;5089135;28;20039;-71
2023/09/21 09:05:07;;;;;;;6.00;2.35;;;22.00;99.90;;;;;;5089569;28;20400;-71
2023/09/21 09:07:41;;;;;;;5.72;2.50;;;22.20;99.90;;;;;;5089881;28;20747;-71
2023/09/21 09:10:12;;;;;;;4.32;2.45;;;22.30;99.90;;;;;;5090203;28;20485;-70
2023/09/21 09:12:39;;;;;;;4.57;2.70;;;22.50;99.90;;;;;;5088805;28;20087;-71
2023/09/21 09:15:06;;;;;;;6.20;2.25;;;22.60;99.90;;;;;;5089096;28;20111;-70
2023/09/21 09:17:32;;;;;;;4.43;2.70;;;22.60;99.90;;;;;;5089661;28;20031;-71
2023/09/21 09:20:02;;;;;;;7.28;2.50;;;22.60;99.90;;;;;;5090303;28;20046;-70
2023/09/21 09:22:31;;;;;;;4.63;2.20;;;22.80;99.90;;;;;;5088345;28;20054;-70
2023/09/21 09:25:04;;;;;;;5.50;2.30;;;23.00;99.90;;;;;;5089056;28;20032;-71
2023/09/21 09:27:31;;;;;;;5.30;2.30;;;23.20;99.90;;;;;;5089407;28;20027;-70
2023/09/21 09:29:57;;;;;;;4.72;2.30;;;23.40;99.90;;;;;;5090084;28;20054;-71
2023/09/21 09:32:24;;;;;;;3.90;2.00;;;23.50;99.90;;;;;;5088591;28;20144;-70
2023/09/21 09:34:50;;;;;;;3.35;2.00;;;23.60;99.90;;;;;;5088254;28;20614;-70
2023/09/21 09:37:17;;;;;;;5.53;2.60;;;23.80;99.90;;;;;;5089272;28;20392;-70
2023/09/21 09:39:47;;;;;;;5.10;2.47;;;23.90;99.90;;;;;;5089269;28;20027;-71
2023/09/21 09:42:13;;;;;;;4.25;2.30;;;24.00;99.90;;;;;;5089300;28;20043;-70
2023/09/21 09:44:44;;;;;;;3.47;2.30;;;24.00;99.90;;;;;;5087287;28;20036;-71
2023/09/21 09:47:12;;;;;;;6.88;2.30;;;24.20;99.90;;;;;;5075633;28;20028;-71
2023/09/21 09:49:40;;;;;;;4.55;2.78;;;24.30;99.90;;;;;;5088974;28;20107;-71
2023/09/21 09:52:10;;;;;;;3.60;2.42;;;24.40;99.90;;;;;;5089522;28;20462;-71
2023/09/21 09:54:36;;;;;;;6.45;2.53;;;24.50;99.90;;;;;;5087999;28;20024;-71
2023/09/21 09:57:04;;;;;;;10.85;2.47;;;24.50;99.90;;;;;;5088482;28;20439;-71
2023/09/21 09:59:31;;;;;;;5.75;2.50;;;24.40;99.90;;;;;;5088027;28;20441;-70
2023/09/21 10:01:58;;;;;;;3.92;2.30;;;24.30;99.90;;;;;;5089531;28;20456;-71
2023/09/21 10:04:25;;;;;;;5.18;2.80;;;24.30;99.90;;;;;;5088114;28;20028;-71
2023/09/21 10:06:52;;;;;;;5.28;2.53;;;24.40;99.90;;;;;;5086277;28;20112;-71
2023/09/21 10:09:18;;;;;;;5.80;2.40;;;24.50;99.90;;;;;;5089322;28;20024;-71
2023/09/21 10:11:49;;;;;;;5.57;2.60;;;24.50;99.90;;;;;;5088500;28;20031;-70
2023/09/21 10:14:17;;;;;;;6.68;2.30;;;24.70;99.90;;;;;;5088061;28;20605;-71
2023/09/21 10:16:54;;;;;;;4.13;2.50;;;24.80;99.60;;;;;;5085460;28;20512;-71
2023/09/21 10:19:28;;;;;;;5.80;2.50;;;24.90;99.90;;;;;;5089079;28;20071;-71
2023/09/21 10:21:56;;;;;;;4.18;2.75;;;25.00;99.90;;;;;;5088144;28;20334;-71
2023/09/21 10:24:24;;;;;;;6.65;2.30;;;25.20;99.90;;;;;;5088534;28;20020;-71
2023/09/21 10:26:51;;;;;;;4.18;2.53;;;25.30;99.90;;;;;;5087834;28;20034;-70
2023/09/21 10:29:21;;;;;;;3.92;2.00;;;25.40;99.90;;;;;;5087993;28;20028;-70
2023/09/21 10:31:56;;;;;;;5.07;2.67;;;25.40;99.90;;;;;;5087285;28;20137;-70
2023/09/21 10:34:24;;;;;;;3.78;2.58;;;25.30;99.60;;;;;;5088214;28;20036;-71
2023/09/21 10:37:00;;;;;;;6.38;2.30;;;25.40;99.90;;;;;;5087529;28;20035;-70
2023/09/21 10:39:28;;;;;;;4.35;2.47;;;25.60;99.90;;;;;;5087146;28;20030;-71
2023/09/21 10:42:15;;;;;;;7.45;2.50;;;25.70;99.30;;;;;;5087718;28;20162;-71
2023/09/21 10:44:53;;;;;;;6.38;2.45;;;25.80;99.30;;;;;;5086441;28;20028;-70
2023/09/21 10:47:30;;;;;;;4.35;2.58;;;26.00;99.80;;;;;;5087885;28;20028;-71
2023/09/21 10:49:58;;;;;;;5.07;2.28;;;26.10;98.20;;;;;;5085843;28;20078;-71
2023/09/21 10:52:27;;;;;;;4.32;2.53;;;26.40;99.10;;;;;;5087263;28;20746;-70
2023/09/21 10:54:54;;;;;;;5.45;2.60;;;26.60;97.60;;;;;;5084594;28;20119;-71
2023/09/21 10:57:27;;;;;;;5.28;2.25;;;26.40;96.50;;;;;;5085557;28;20028;-71
2023/09/21 10:59:59;;;;;;;5.57;2.63;;;26.30;96.90;;;;;;5086900;28;20054;-71
2023/09/21 11:02:26;;;;;;;6.50;2.58;;;26.40;96.70;;;;;;5087859;28;20031;-70
2023/09/21 11:04:52;;;;;;;5.45;2.13;;;26.50;96.30;;;;;;5087366;28;20028;-70
2023/09/21 11:07:19;;;;;;;3.67;2.60;;;26.30;96.70;;;;;;5087573;28;20046;-70
2023/09/21 11:09:45;;;;;;;4.82;2.50;;;26.30;96.90;;;;;;5085950;28;20077;-71
2023/09/21 11:12:13;;;;;;;4.03;2.00;;;26.60;97.30;;;;;;5088301;28;20504;-71
2023/09/21 11:14:48;;;;;;;3.67;2.20;;;26.90;96.20;;;;;;5087071;28;20027;-71
2023/09/21 11:17:18;;;;;;;2.10;1.67;;;26.90;96.20;;;;;;5088161;28;20063;-71
2023/09/21 11:19:45;;;;;;;6.38;2.03;;;27.10;93.30;;;;;;5086597;28;20032;-70
2023/09/21 11:22:12;;;;;;;3.92;1.58;;;27.10;93.10;;;;;;5087751;28;20383;-71
2023/09/21 11:24:39;;;;;;;3.15;1.73;;;27.30;92.60;;;;;;5089317;28;20032;-71
2023/09/21 11:27:06;;;;;;;4.63;1.55;;;27.40;92.00;;;;;;5050266;28;20476;-71
2023/09/21 11:29:34;;;;;;;2.90;1.67;;;27.10;91.40;;;;;;5072167;28;20449;-71
2023/09/21 11:32:00;;;;;;;9.52;1.80;;;27.00;92.10;;;;;;5071493;28;20043;-70
2023/09/21 11:34:26;;;;;;;7.30;1.65;;;27.30;93.00;;;;;;5072144;28;20031;-70
2023/09/21 11:36:52;;;;;;;3.28;1.80;;;27.90;93.90;;;;;;5080197;28;20028;-71
2023/09/21 11:39:22;;;;;;;3.70;2.08;;;28.10;93.70;;;;;;5092271;28;20098;-71
2023/09/21 11:41:51;;;;;;;5.20;2.00;;;28.00;92.00;;;;;;5090747;28;20032;-71
2023/09/21 11:44:17;;;;;;;5.25;1.75;;;28.20;93.00;;;;;;5089356;28;20074;-71
2023/09/21 11:46:44;;;;;;;5.55;2.10;;;28.30;92.40;;;;;;5071337;28;20028;-70
2023/09/21 11:49:10;;;;;;;3.15;1.83;;;28.40;92.50;;;;;;5091673;28;20508;-71
2023/09/21 11:51:36;;;;;;;3.47;2.13;;;28.60;91.70;;;;;;5091520;28;20036;-70
2023/09/21 11:54:04;;;;;;;3.78;2.03;;;28.60;90.70;;;;;;5091504;28;20038;-70
2023/09/21 11:56:30;;;;;;;5.10;2.38;;;28.40;91.80;;;;;;5091461;28;20039;-71
2023/09/21 11:58:59;;;;;;;2.92;2.08;;;28.20;91.40;;;;;;5090682;28;20717;-71
2023/09/21 12:01:27;;;;;;;3.75;2.33;;;28.30;92.40;;;;;;5089081;28;20090;-70
2023/09/21 12:03:54;;;;;;;3.63;1.77;;;28.70;92.00;;;;;;5089121;28;20039;-70
2023/09/21 12:06:19;;;;;;;3.42;2.08;;;28.70;90.70;;;;;;5091516;28;20535;-72
2023/09/21 12:08:45;;;;;;;2.85;2.10;;;28.80;92.00;;;;;;5090803;28;20056;-70
2023/09/21 12:11:13;;;;;;;8.18;1.70;;;29.40;92.00;;;;;;5090750;28;20106;-70
2023/09/21 12:13:39;;;;;;;4.53;2.00;;;29.10;90.30;;;;;;5090691;28;20071;-70
2023/09/21 12:16:06;;;;;;;3.65;1.90;;;28.60;92.00;;;;;;5090947;28;20565;-70
2023/09/21 12:18:32;;;;;;;3.25;1.88;;;28.60;91.40;;;;;;5090478;28;20043;-71
2023/09/21 12:21:00;;;;;;;3.08;1.73;;;28.70;91.90;;;;;;5089715;28;20606;-70
2023/09/21 12:23:26;;;;;;;5.82;2.00;;;28.80;91.40;;;;;;5089310;28;20040;-70
2023/09/21 12:25:51;;;;;;;2.58;1.80;;;29.00;91.10;;;;;;5090698;28;20381;-70
2023/09/21 12:28:19;;;;;;;2.58;1.88;;;29.00;88.20;;;;;;5091047;28;20090;-70
2023/09/21 12:30:47;;;;;;;4.63;1.65;;;29.20;92.30;;;;;;5089512;28;20024;-71
2023/09/21 12:33:17;;;;;;;3.20;2.03;;;29.30;89.00;;;;;;5090977;28;20472;-70
2023/09/21 12:35:42;;;;;;;2.47;1.73;;;28.80;90.90;;;;;;5089117;28;20034;-70
2023/09/21 12:38:10;;;;;;;2.78;1.48;;;28.30;88.00;;;;;;5090309;28;20262;-70
2023/09/21 12:40:37;;;;;;;5.00;1.52;;;28.10;88.40;;;;;;5087884;28;20384;-71
2023/09/21 12:43:05;;;;;;;3.10;1.70;;;27.90;89.80;;;;;;5082200;28;20036;-71
2023/09/21 12:45:32;;;;;;;5.47;1.90;;;27.80;90.50;;;;;;5086498;28;20476;-70